createdAt,value
2019-02-22T00:02:13.969Z,9.70
2019-02-22T00:09:11.395Z,9.60
2019-02-22T00:16:08.471Z,9.50
2019-02-22T00:23:06.498Z,9.50
2019-02-22T00:30:03.563Z,9.50
2019-02-22T00:37:01.847Z,9.50
2019-02-22T00:43:58.603Z,9.40
2019-02-22T00:50:56.249Z,9.10
2019-02-22T00:57:53.151Z,8.90
2019-02-22T01:04:50.376Z,9.00
2019-02-22T01:11:47.296Z,9.50
2019-02-22T01:18:44.511Z,9.90
2019-02-22T01:25:41.316Z,10.10
2019-02-22T01:32:38.964Z,10.20
2019-02-22T01:39:35.927Z,10.40
2019-02-22T01:46:32.752Z,10.60
2019-02-22T01:53:30.370Z,10.70
2019-02-22T02:00:27.599Z,10.70
2019-02-22T02:07:24.637Z,10.70
2019-02-22T02:14:21.848Z,10.70
2019-02-22T02:21:18.552Z,10.80
2019-02-22T02:28:15.427Z,10.80
2019-02-22T02:35:12.510Z,10.80
2019-02-22T02:42:10.700Z,10.80
2019-02-22T02:49:07.982Z,10.80
2019-02-22T02:56:05.543Z,10.70
2019-02-22T03:03:02.766Z,10.80
2019-02-22T03:10:00.409Z,10.80
2019-02-22T03:16:57.776Z,10.70
2019-02-22T03:23:55.538Z,10.60
2019-02-22T03:30:52.672Z,10.50
2019-02-22T03:37:49.873Z,10.50
2019-02-22T03:44:47.542Z,10.60
2019-02-22T03:51:44.756Z,10.60
2019-02-22T03:58:41.951Z,10.60
2019-02-22T04:05:39.569Z,10.60
2019-02-22T04:12:38.025Z,10.60
2019-02-22T04:19:34.963Z,10.80
2019-02-22T04:26:32.626Z,10.60
2019-02-22T04:33:29.791Z,10.50
2019-02-22T04:40:27.076Z,10.40
2019-02-22T04:47:23.902Z,10.40
2019-02-22T04:54:21.132Z,10.30
2019-02-22T05:01:19.375Z,10.30
2019-02-22T05:08:16.194Z,10.10
2019-02-22T05:15:13.371Z,10.00
2019-02-22T05:22:10.123Z,9.90
2019-02-22T05:29:07.641Z,9.90
2019-02-22T05:36:05.231Z,9.90
2019-02-22T05:43:02.146Z,9.90
2019-02-22T05:49:59.511Z,9.90
2019-02-22T05:56:56.104Z,10.00
2019-02-22T06:03:53.472Z,9.90
2019-02-22T06:10:50.427Z,9.90
2019-02-22T06:17:47.694Z,9.80
2019-02-22T06:24:45.029Z,9.80
2019-02-22T06:31:41.813Z,9.70
2019-02-22T06:38:39.232Z,9.70
2019-02-22T06:45:35.831Z,9.60
2019-02-22T06:52:33.467Z,9.60
2019-02-22T06:59:30.559Z,9.60
2019-02-22T07:06:27.623Z,9.60
2019-02-22T07:13:24.920Z,9.60
2019-02-22T07:20:11.358Z,9.50
2019-02-22T07:27:15.652Z,9.60
2019-02-22T07:34:17.975Z,9.60
2019-02-22T07:41:02.919Z,9.60
2019-02-22T07:47:47.900Z,9.70
2019-02-22T07:54:45.729Z,9.80
2019-02-22T08:01:47.323Z,9.90
2019-02-22T08:08:42.380Z,9.90
2019-02-22T08:15:39.692Z,10.10
2019-02-22T08:22:36.892Z,10.50
2019-02-22T08:29:34.303Z,10.80
2019-02-22T08:36:19.237Z,11.10
2019-02-22T08:43:04.167Z,11.80
2019-02-22T08:49:49.179Z,12.20
2019-02-22T08:56:34.139Z,12.70
2019-02-22T09:03:31.276Z,13.40
2019-02-22T09:10:28.004Z,13.80
2019-02-22T09:17:25.820Z,13.50
2019-02-22T09:24:22.899Z,12.70
2019-02-22T09:31:19.915Z,12.80
2019-02-22T09:38:04.851Z,13.00
2019-02-22T09:44:49.733Z,13.80
2019-02-22T09:51:47.125Z,14.90
2019-02-22T09:58:32.023Z,16.30
2019-02-22T10:05:16.894Z,15.90
2019-02-22T10:12:01.766Z,14.40
2019-02-22T10:18:46.703Z,14.70
2019-02-22T10:25:43.971Z,16.50
2019-02-22T10:32:41.020Z,17.60
2019-02-22T10:39:38.066Z,17.00
2019-02-22T10:46:35.487Z,16.00
2019-02-22T10:53:32.355Z,17.40
2019-02-22T11:00:29.435Z,16.10
2019-02-22T11:07:26.644Z,15.30
2019-02-22T11:14:29.187Z,14.80
2019-02-22T11:21:10.452Z,13.90
2019-02-22T11:28:14.669Z,14.00
2019-02-22T11:35:11.603Z,14.40
2019-02-22T11:41:56.478Z,15.00
2019-02-22T11:48:53.856Z,16.30
2019-02-22T11:55:38.831Z,15.10
2019-02-22T12:02:45.135Z,14.50
2019-02-22T12:10:01.269Z,14.40
2019-02-22T12:16:59.646Z,14.70
2019-02-22T12:23:57.136Z,15.00
2019-02-22T12:30:42.080Z,14.60
2019-02-22T12:37:39.159Z,14.50
2019-02-22T12:44:35.864Z,14.70
2019-02-22T12:51:32.531Z,14.40
2019-02-22T12:58:30.979Z,14.10
2019-02-22T13:05:18.463Z,13.90
2019-02-22T13:12:13.679Z,13.70
2019-02-22T13:19:02.515Z,14.00
2019-02-22T13:25:59.515Z,14.30
2019-02-22T13:32:56.248Z,14.10
2019-02-22T13:39:53.290Z,13.90
2019-02-22T13:46:50.136Z,14.10
2019-02-22T13:53:47.452Z,14.30
2019-02-22T14:00:44.689Z,14.60
2019-02-22T14:07:41.769Z,15.00
2019-02-22T14:14:41.646Z,14.60
2019-02-22T14:21:38.755Z,14.30
2019-02-22T14:28:51.325Z,13.80
2019-02-22T14:35:56.443Z,13.50
2019-02-22T14:42:41.630Z,14.10
2019-02-22T14:49:26.707Z,14.20
2019-02-22T14:56:23.929Z,14.00
2019-02-22T15:03:21.564Z,13.60
2019-02-22T15:10:19.081Z,13.30
2019-02-22T15:24:45.243Z,13.20
2019-02-22T15:31:42.663Z,13.90
2019-02-22T15:38:39.375Z,14.50
2019-02-22T15:45:36.945Z,14.40
2019-02-22T15:52:34.707Z,14.30
2019-02-22T15:59:31.476Z,14.30
2019-02-22T16:06:29.055Z,13.80
2019-02-22T16:13:25.906Z,13.40
2019-02-22T16:20:22.679Z,13.00
2019-02-22T16:27:20.259Z,12.70
2019-02-22T16:34:05.303Z,12.20
2019-02-22T16:41:09.607Z,12.00
2019-02-22T16:48:06.465Z,11.60
2019-02-22T16:55:04.003Z,11.40
2019-02-22T17:02:01.585Z,11.00
2019-02-22T17:08:46.564Z,10.60
2019-02-22T17:15:33.790Z,10.20
2019-02-22T17:22:30.769Z,9.80
2019-02-22T17:29:27.761Z,9.50
2019-02-22T17:36:12.728Z,9.10
2019-02-22T17:43:17.099Z,9.00
2019-02-22T17:50:14.211Z,8.80
2019-02-22T17:57:11.365Z,8.50
2019-02-22T18:04:08.655Z,8.70
2019-02-22T18:11:05.801Z,8.80
2019-02-22T18:18:02.935Z,9.30
2019-02-22T18:25:00.313Z,9.20
2019-02-22T18:31:57.534Z,9.00
2019-02-22T18:38:55.086Z,9.10
2019-02-22T18:45:53.215Z,9.00
2019-02-22T18:52:52.060Z,8.90
2019-02-22T18:59:49.556Z,9.00
2019-02-22T19:06:46.948Z,9.10
2019-02-22T19:13:44.347Z,8.80
2019-02-22T19:20:41.131Z,8.90
2019-02-22T19:27:38.040Z,8.60
2019-02-22T19:34:23.018Z,8.30
2019-02-22T19:41:20.084Z,8.00
2019-02-22T19:48:17.401Z,7.70
2019-02-22T19:55:14.408Z,7.40
2019-02-22T20:01:59.343Z,6.80
2019-02-22T20:08:44.378Z,6.20
2019-02-22T20:15:41.701Z,5.90
2019-02-22T20:22:38.909Z,5.70
2019-02-22T20:29:23.911Z,5.40
2019-02-22T20:36:09.127Z,5.30
2019-02-22T20:42:54.088Z,5.20
2019-02-22T20:56:55.102Z,5.00
2019-02-22T21:03:40.918Z,4.90
2019-02-22T21:10:25.818Z,4.80
2019-02-22T21:17:23.248Z,4.70
2019-02-22T21:24:20.402Z,4.70
2019-02-22T21:31:18.272Z,4.70
2019-02-22T21:38:16.055Z,4.50
2019-02-22T21:45:13.107Z,4.30
2019-02-22T21:52:10.729Z,4.20
2019-02-22T21:58:55.992Z,4.10
2019-02-22T22:05:42.758Z,4.10
2019-02-22T22:12:28.304Z,4.20
2019-02-22T22:26:48.708Z,3.80
2019-02-22T22:33:52.870Z,3.70
2019-02-22T22:48:19.468Z,3.40
2019-02-22T22:55:05.573Z,3.40
2019-02-22T23:09:25.727Z,3.30
2019-02-22T23:16:22.548Z,3.40
2019-02-22T23:23:20.155Z,3.40
2019-02-22T23:30:07.632Z,3.40
2019-02-22T23:36:52.731Z,3.40
2019-02-22T23:43:49.920Z,3.40
2019-02-22T23:50:35.731Z,3.50
2019-02-22T23:57:32.838Z,3.40
